Time;durP1;ratioP1;P1;durP2;ratioP2;P2;SDS_P1;SDS_P2;PMS_P1;PMS_P2;Temp;Humidity;BMP_temperature;BMP_pressure;BME280_temperature;BME280_humidity;BME280_pressure;Samples;Min_cycle;Max_cycle;Signal;HPM_P1;HPM_P2
2023/06/15 00:01:33;;;;;;;9.00;5.88;;;;;;;;;;5042477;28;20032;-76
2023/06/15 00:04:00;;;;;;;9.30;6.00;;;;;;;;;;5065152;28;20763;-79
2023/06/15 00:06:27;;;;;;;19.58;6.18;;;;;;;;;;5051611;28;20028;-79
2023/06/15 00:08:54;;;;;;;7.63;5.53;;;;;;;;;;5070667;28;20024;-76
2023/06/15 00:11:20;;;;;;;8.40;5.97;;;;;;;;;;5071863;28;20070;-75
2023/06/15 00:13:46;;;;;;;10.35;5.75;;;;;;;;;;5062983;28;20052;-76
2023/06/15 00:16:18;;;;;;;13.20;6.20;;;;;;;;;;5070802;28;20096;-77
2023/06/15 00:18:47;;;;;;;8.07;6.00;;;;;;;;;;5068507;28;20028;-76
2023/06/15 00:21:15;;;;;;;8.35;5.47;;;;;;;;;;5064316;28;20041;-76
2023/06/15 00:23:41;;;;;;;8.93;6.45;;;;;;;;;;5043393;28;20112;-75
2023/06/15 00:26:07;;;;;;;6.78;5.97;;;;;;;;;;5062845;28;20750;-75
2023/06/15 00:28:33;;;;;;;10.93;6.47;;;;;;;;;;5047424;28;20082;-76
2023/06/15 00:31:00;;;;;;;10.57;6.57;;;;;;;;;;5051568;28;20416;-76
2023/06/15 00:33:26;;;;;;;8.55;6.22;;;;;;;;;;5058297;28;20163;-79
2023/06/15 00:35:52;;;;;;;8.35;6.00;;;;;;;;;;5066207;28;20054;-79
2023/06/15 00:38:18;;;;;;;8.50;6.40;;;;;;;;;;5054047;28;20028;-75
2023/06/15 00:40:45;;;;;;;9.98;6.10;;;;;;;;;;5065260;28;21009;-76
2023/06/15 00:43:12;;;;;;;7.45;5.63;;;;;;;;;;5065897;28;20107;-75
2023/06/15 00:45:38;;;;;;;9.60;6.18;;;;;;;;;;5043760;28;20032;-77
2023/06/15 00:48:05;;;;;;;8.45;6.50;;;;;;;;;;5045984;28;20049;-78
2023/06/15 00:50:31;;;;;;;9.00;6.15;;;;;;;;;;5049681;28;20385;-78
2023/06/15 00:53:00;;;;;;;9.38;6.35;;;;;;;;;;5068958;28;20028;-78
2023/06/15 00:55:27;;;;;;;10.55;5.85;;;;;;;;;;5047516;28;20029;-79
2023/06/15 00:57:54;;;;;;;9.90;7.05;;;;;;;;;;5058157;28;20037;-78
2023/06/15 01:00:20;;;;;;;8.55;6.20;;;;;;;;;;5061523;28;20046;-76
2023/06/15 01:02:48;;;;;;;8.95;5.97;;;;;;;;;;5065147;28;20086;-76
2023/06/15 01:05:16;;;;;;;8.30;6.18;;;;;;;;;;5065969;28;20039;-80
2023/06/15 01:07:47;;;;;;;8.75;6.28;;;;;;;;;;5065383;28;20037;-77
2023/06/15 01:10:15;;;;;;;7.70;6.20;;;;;;;;;;5068106;28;20025;-79
2023/06/15 01:12:45;;;;;;;9.68;7.00;;;;;;;;;;5069330;28;20103;-76
2023/06/15 01:15:11;;;;;;;13.07;7.78;;;;;;;;;;5061500;28;20039;-76
2023/06/15 01:17:44;;;;;;;10.07;6.43;;;;;;;;;;5064529;28;20055;-79
2023/06/15 01:20:13;;;;;;;9.68;7.45;;;;;;;;;;5065571;28;20029;-78
2023/06/15 01:22:45;;;;;;;8.15;6.55;;;;;;;;;;5063754;28;20450;-78
2023/06/15 01:25:49;;;;;;;7.82;6.63;;;;;;;;;;5044799;28;20048;-76
2023/06/15 01:28:17;;;;;;;8.15;6.28;;;;;;;;;;5003818;28;20073;-76
2023/06/15 01:30:52;;;;;;;8.52;6.68;;;;;;;;;;5036970;28;20098;-80
2023/06/15 01:33:18;;;;;;;12.18;7.05;;;;;;;;;;5064521;28;20545;-80
2023/06/15 01:35:44;;;;;;;10.75;6.65;;;;;;;;;;5066833;28;20099;-79
2023/06/15 01:38:11;;;;;;;10.63;6.88;;;;;;;;;;5063293;28;20060;-77
2023/06/15 01:40:39;;;;;;;7.97;6.38;;;;;;;;;;5063242;28;20025;-78
2023/06/15 01:43:10;;;;;;;9.93;6.53;;;;;;;;;;5064085;28;20032;-80
2023/06/15 01:45:38;;;;;;;7.78;6.68;;;;;;;;;;5064227;28;20020;-77
2023/06/15 01:48:04;;;;;;;8.75;6.60;;;;;;;;;;5042017;28;20458;-77
2023/06/15 01:50:31;;;;;;;9.43;6.70;;;;;;;;;;5048647;28;20020;-77
2023/06/15 01:52:58;;;;;;;12.95;7.40;;;;;;;;;;5048175;28;20098;-79
2023/06/15 01:55:24;;;;;;;12.20;6.93;;;;;;;;;;5062025;28;20029;-78
2023/06/15 01:57:52;;;;;;;8.82;7.53;;;;;;;;;;5067098;28;20368;-78
2023/06/15 02:00:19;;;;;;;8.30;6.95;;;;;;;;;;5056616;28;20070;-79
2023/06/15 02:02:45;;;;;;;9.63;7.03;;;;;;;;;;5061472;28;20038;-78
2023/06/15 02:05:11;;;;;;;9.15;7.15;;;;;;;;;;5062145;28;20039;-78
2023/06/15 02:07:37;;;;;;;9.02;5.90;;;;;;;;;;5065760;28;20111;-78
2023/06/15 02:10:03;;;;;;;9.10;6.93;;;;;;;;;;5067121;28;20024;-79
2023/06/15 02:12:30;;;;;;;8.35;6.72;;;;;;;;;;5066221;28;20031;-78
2023/06/15 02:14:57;;;;;;;10.43;6.63;;;;;;;;;;5029633;28;20043;-78
2023/06/15 02:17:24;;;;;;;10.88;6.88;;;;;;;;;;5063539;28;20021;-77
2023/06/15 02:19:51;;;;;;;13.75;6.85;;;;;;;;;;5066365;28;20029;-79
2023/06/15 02:22:17;;;;;;;8.48;6.90;;;;;;;;;;5061725;28;20024;-79
2023/06/15 02:24:43;;;;;;;10.55;7.22;;;;;;;;;;5064751;28;20074;-80
2023/06/15 02:27:10;;;;;;;10.98;6.60;;;;;;;;;;5063683;28;20044;-80
2023/06/15 02:29:36;;;;;;;10.65;6.80;;;;;;;;;;5062695;28;20054;-79
2023/06/15 02:32:02;;;;;;;11.13;7.75;;;;;;;;;;5063519;28;20041;-79
2023/06/15 02:34:28;;;;;;;10.88;6.93;;;;;;;;;;5063404;28;20025;-78
2023/06/15 02:36:54;;;;;;;8.73;6.97;;;;;;;;;;5064228;28;20020;-78
2023/06/15 02:39:21;;;;;;;11.88;7.28;;;;;;;;;;5042732;28;20033;-80
2023/06/15 02:41:47;;;;;;;10.40;7.72;;;;;;;;;;5074187;28;20024;-79
2023/06/15 02:44:17;;;;;;;11.05;7.68;;;;;;;;;;5047420;28;20029;-79
2023/06/15 02:46:44;;;;;;;11.27;7.45;;;;;;;;;;5064243;28;20056;-79
2023/06/15 02:49:10;;;;;;;11.75;7.72;;;;;;;;;;5067145;28;20060;-78
2023/06/15 02:51:37;;;;;;;11.35;7.72;;;;;;;;;;5067949;28;20029;-78
2023/06/15 02:54:05;;;;;;;9.90;7.55;;;;;;;;;;5062393;28;20123;-79
2023/06/15 02:56:35;;;;;;;12.32;8.15;;;;;;;;;;5066288;28;20021;-78
2023/06/15 02:59:02;;;;;;;13.70;8.20;;;;;;;;;;5049135;28;20092;-79
2023/06/15 03:01:36;;;;;;;13.60;8.18;;;;;;;;;;5076378;28;20104;-77
2023/06/15 03:04:03;;;;;;;10.52;8.43;;;;;;;;;;5051457;28;20489;-78
2023/06/15 03:06:33;;;;;;;13.35;8.48;;;;;;;;;;5061591;28;20521;-79
2023/06/15 03:09:00;;;;;;;14.65;8.55;;;;;;;;;;5077474;28;20024;-78
2023/06/15 03:11:26;;;;;;;14.38;8.60;;;;;;;;;;5076458;28;20028;-79
2023/06/15 03:13:53;;;;;;;9.40;7.32;;;;;;;;;;5068032;28;20021;-79
2023/06/15 03:16:20;;;;;;;10.60;6.82;;;;;;;;;;5049950;28;20429;-79
2023/06/15 03:18:47;;;;;;;14.35;8.50;;;;;;;;;;5070792;28;20021;-78
2023/06/15 03:21:14;;;;;;;11.55;8.20;;;;;;;;;;5070211;28;20787;-79
2023/06/15 03:23:42;;;;;;;12.80;8.95;;;;;;;;;;5068581;28;20044;-80
2023/06/15 03:26:10;;;;;;;11.88;8.10;;;;;;;;;;5066216;28;20460;-78
2023/06/15 03:28:38;;;;;;;13.10;8.15;;;;;;;;;;5066443;28;20538;-78
2023/06/15 03:31:07;;;;;;;11.07;7.75;;;;;;;;;;5068030;28;20024;-78
2023/06/15 03:33:33;;;;;;;8.75;7.32;;;;;;;;;;5062487;28;20637;-78
2023/06/15 03:36:01;;;;;;;10.80;7.20;;;;;;;;;;5068155;28;20619;-78
2023/06/15 03:38:27;;;;;;;9.35;6.90;;;;;;;;;;5048487;28;20035;-77
2023/06/15 03:40:53;;;;;;;12.00;6.88;;;;;;;;;;5067243;28;20036;-78
2023/06/15 03:43:19;;;;;;;11.75;7.93;;;;;;;;;;5046228;28;20037;-78
2023/06/15 03:45:46;;;;;;;8.80;6.78;;;;;;;;;;5061127;28;20442;-78
2023/06/15 03:48:12;;;;;;;9.02;6.70;;;;;;;;;;5067806;28;20535;-78
2023/06/15 03:50:38;;;;;;;8.77;7.03;;;;;;;;;;5065935;28;20033;-78
2023/06/15 03:53:04;;;;;;;9.93;6.82;;;;;;;;;;5069991;28;20039;-79
2023/06/15 03:55:31;;;;;;;14.38;6.90;;;;;;;;;;5064948;28;20032;-78
2023/06/15 03:57:57;;;;;;;9.10;6.82;;;;;;;;;;5044859;28;20111;-78
2023/06/15 04:00:23;;;;;;;7.57;6.32;;;;;;;;;;5062429;28;20045;-79
2023/06/15 04:02:49;;;;;;;8.30;7.05;;;;;;;;;;5042441;28;20036;-79
2023/06/15 04:05:16;;;;;;;8.63;7.22;;;;;;;;;;5068647;28;20032;-78
2023/06/15 04:07:43;;;;;;;8.43;6.32;;;;;;;;;;5068017;28;20040;-77
2023/06/15 04:10:10;;;;;;;8.27;6.97;;;;;;;;;;5064497;28;20028;-79
2023/06/15 04:12:37;;;;;;;8.18;6.07;;;;;;;;;;5068666;28;20035;-79
2023/06/15 04:15:03;;;;;;;11.55;7.15;;;;;;;;;;5067962;28;20533;-80
2023/06/15 04:17:30;;;;;;;8.75;6.68;;;;;;;;;;5063524;28;20047;-79
2023/06/15 04:19:56;;;;;;;8.40;6.75;;;;;;;;;;5058485;28;20473;-78
2023/06/15 04:22:22;;;;;;;10.80;7.25;;;;;;;;;;5050165;28;20043;-78
2023/06/15 04:24:48;;;;;;;8.63;6.60;;;;;;;;;;5066735;28;20028;-78
2023/06/15 04:27:18;;;;;;;8.32;7.03;;;;;;;;;;5064131;28;20090;-79
2023/06/15 04:29:45;;;;;;;13.20;7.68;;;;;;;;;;5068771;28;20021;-80
2023/06/15 04:32:12;;;;;;;8.57;6.95;;;;;;;;;;5055855;28;20045;-78
2023/06/15 04:34:38;;;;;;;10.02;6.60;;;;;;;;;;5044841;28;20110;-78
2023/06/15 04:37:06;;;;;;;10.38;6.47;;;;;;;;;;5063686;28;20028;-79
2023/06/15 04:39:33;;;;;;;8.70;6.63;;;;;;;;;;5067565;28;20082;-78
2023/06/15 04:41:59;;;;;;;10.38;7.53;;;;;;;;;;5064428;28;20039;-81
2023/06/15 04:44:25;;;;;;;8.43;6.30;;;;;;;;;;5068496;28;20107;-78
2023/06/15 04:46:52;;;;;;;8.52;6.80;;;;;;;;;;5063665;28;20465;-80
2023/06/15 04:49:19;;;;;;;9.68;7.28;;;;;;;;;;5065077;28;20090;-79
2023/06/15 04:51:47;;;;;;;11.18;7.88;;;;;;;;;;5060259;28;20028;-78
2023/06/15 04:54:13;;;;;;;12.88;7.45;;;;;;;;;;5064914;28;20025;-77
2023/06/15 04:56:39;;;;;;;10.68;6.57;;;;;;;;;;5064316;28;20473;-78
2023/06/15 04:59:05;;;;;;;12.70;7.20;;;;;;;;;;5042938;28;20040;-78
2023/06/15 05:01:31;;;;;;;8.38;6.63;;;;;;;;;;5063071;28;20124;-80
2023/06/15 05:03:58;;;;;;;10.23;7.90;;;;;;;;;;5064094;28;20078;-79
2023/06/15 05:06:25;;;;;;;9.50;7.32;;;;;;;;;;5060449;28;20104;-80
2023/06/15 05:08:52;;;;;;;11.32;7.80;;;;;;;;;;5048812;28;20082;-81
2023/06/15 05:11:18;;;;;;;12.63;7.75;;;;;;;;;;5045170;28;20029;-82
2023/06/15 05:13:44;;;;;;;11.68;8.13;;;;;;;;;;5064452;28;20054;-82
2023/06/15 05:16:10;;;;;;;13.52;8.25;;;;;;;;;;5067249;28;20082;-80
2023/06/15 05:18:36;;;;;;;10.82;8.07;;;;;;;;;;5064728;28;20033;-80
2023/06/15 05:21:03;;;;;;;10.73;7.93;;;;;;;;;;5069282;28;20421;-80
2023/06/15 05:23:29;;;;;;;10.88;7.80;;;;;;;;;;5063431;28;20035;-78
2023/06/15 05:25:56;;;;;;;9.45;8.10;;;;;;;;;;5062815;28;20432;-79
2023/06/15 05:28:22;;;;;;;9.82;7.30;;;;;;;;;;5062881;28;20040;-78
2023/06/15 05:30:48;;;;;;;12.45;7.85;;;;;;;;;;5058228;28;20461;-80
2023/06/15 05:33:14;;;;;;;11.27;7.15;;;;;;;;;;5045784;28;20080;-82
2023/06/15 05:35:40;;;;;;;16.70;9.15;;;;;;;;;;5065000;28;20028;-78
2023/06/15 05:38:06;;;;;;;10.77;8.50;;;;;;;;;;5061814;28;20116;-79
2023/06/15 05:40:32;;;;;;;12.68;8.65;;;;;;;;;;5062188;28;20439;-78
2023/06/15 05:43:00;;;;;;;12.77;8.10;;;;;;;;;;5067228;28;21522;-81
2023/06/15 05:45:27;;;;;;;12.68;8.07;;;;;;;;;;5058812;28;20116;-81
2023/06/15 05:47:53;;;;;;;15.85;8.88;;;;;;;;;;5046427;28;20028;-80
2023/06/15 05:50:19;;;;;;;9.05;7.05;;;;;;;;;;5066563;28;20029;-88
2023/06/15 05:52:45;;;;;;;16.45;9.07;;;;;;;;;;5065784;28;20534;-80
2023/06/15 05:55:12;;;;;;;14.13;7.97;;;;;;;;;;5064011;28;20028;-78
2023/06/15 05:57:38;;;;;;;13.38;8.82;;;;;;;;;;5063822;28;20354;-78
2023/06/15 06:00:04;;;;;;;10.10;8.00;;;;;;;;;;5063495;28;20103;-78
2023/06/15 06:02:31;;;;;;;10.73;7.90;;;;;;;;;;5067629;28;20083;-78
2023/06/15 06:04:57;;;;;;;12.88;8.02;;;;;;;;;;5063813;28;20059;-78
2023/06/15 06:07:24;;;;;;;10.80;7.43;;;;;;;;;;5063834;28;20068;-78
2023/06/15 06:09:50;;;;;;;13.48;7.88;;;;;;;;;;5064091;28;20024;-85
2023/06/15 06:12:16;;;;;;;12.48;7.97;;;;;;;;;;5065655;28;20470;-80
2023/06/15 06:14:45;;;;;;;13.75;8.80;;;;;;;;;;5064882;28;20017;-85
2023/06/15 06:17:11;;;;;;;13.18;8.10;;;;;;;;;;5076355;28;20024;-83
2023/06/15 06:19:37;;;;;;;16.88;8.80;;;;;;;;;;5071737;28;20056;-84
2023/06/15 06:22:03;;;;;;;10.68;7.80;;;;;;;;;;5074258;28;20055;-83
2023/06/15 06:24:29;;;;;;;11.60;8.55;;;;;;;;;;5073956;28;20028;-83
2023/06/15 06:26:57;;;;;;;10.40;8.38;;;;;;;;;;5042023;28;20479;-81
2023/06/15 06:29:23;;;;;;;12.57;8.18;;;;;;;;;;5070166;28;20021;-82
2023/06/15 06:31:49;;;;;;;12.15;7.40;;;;;;;;;;5065997;28;20044;-80
2023/06/15 06:34:16;;;;;;;11.80;7.90;;;;;;;;;;5065592;28;20024;-80
2023/06/15 06:36:42;;;;;;;12.27;8.70;;;;;;;;;;5072904;28;20013;-81
2023/06/15 06:39:08;;;;;;;11.10;8.55;;;;;;;;;;5063161;28;20025;-79
2023/06/15 06:41:34;;;;;;;14.05;9.75;;;;;;;;;;5068628;28;20040;-79
2023/06/15 06:44:00;;;;;;;10.07;8.15;;;;;;;;;;5064810;28;20555;-79
2023/06/15 06:46:27;;;;;;;15.10;8.50;;;;;;;;;;5066095;28;20060;-78
2023/06/15 06:48:53;;;;;;;11.45;8.20;;;;;;;;;;5066605;28;20467;-79
2023/06/15 06:51:19;;;;;;;14.02;8.00;;;;;;;;;;5068038;28;20040;-79
2023/06/15 06:53:45;;;;;;;11.68;8.10;;;;;;;;;;5047806;28;20741;-79
2023/06/15 06:56:11;;;;;;;11.32;7.88;;;;;;;;;;5046115;28;20554;-79
2023/06/15 06:58:37;;;;;;;12.88;8.75;;;;;;;;;;5064200;28;20116;-77
2023/06/15 07:01:03;;;;;;;13.05;8.45;;;;;;;;;;5064034;28;20032;-79
2023/06/15 07:03:30;;;;;;;10.20;7.65;;;;;;;;;;5066702;28;20115;-79
2023/06/15 07:05:56;;;;;;;13.30;7.72;;;;;;;;;;5057819;28;20043;-80
2023/06/15 07:08:22;;;;;;;8.60;7.05;;;;;;;;;;5067484;28;20489;-83
2023/06/15 07:10:49;;;;;;;11.95;8.43;;;;;;;;;;5072609;28;20026;-81
2023/06/15 07:13:15;;;;;;;12.55;8.15;;;;;;;;;;5066592;28;20118;-81
2023/06/15 07:15:41;;;;;;;10.90;8.02;;;;;;;;;;5070475;28;20032;-82
2023/06/15 07:18:07;;;;;;;11.77;8.23;;;;;;;;;;5067420;28;20048;-82
2023/06/15 07:20:33;;;;;;;9.88;7.28;;;;;;;;;;5054250;28;20204;-81
2023/06/15 07:22:59;;;;;;;9.82;8.07;;;;;;;;;;5064325;28;20029;-78
2023/06/15 07:25:25;;;;;;;12.23;7.95;;;;;;;;;;5066727;28;20036;-80
2023/06/15 07:27:52;;;;;;;10.18;8.00;;;;;;;;;;5063397;28;20044;-81
2023/06/15 07:30:18;;;;;;;12.98;8.30;;;;;;;;;;5067563;28;20056;-79
2023/06/15 07:32:44;;;;;;;11.15;8.00;;;;;;;;;;5067559;28;20045;-77
2023/06/15 07:35:10;;;;;;;9.68;7.82;;;;;;;;;;5074706;28;20031;-76
2023/06/15 07:37:36;;;;;;;10.65;7.80;;;;;;;;;;5067464;28;20020;-79
2023/06/15 07:40:02;;;;;;;12.63;8.10;;;;;;;;;;5063025;28;20153;-80
2023/06/15 07:42:29;;;;;;;13.23;9.05;;;;;;;;;;5067465;28;20036;-77
2023/06/15 07:44:55;;;;;;;9.38;7.72;;;;;;;;;;5068747;28;20029;-78
2023/06/15 07:47:21;;;;;;;9.60;7.40;;;;;;;;;;5063412;28;20357;-78
2023/06/15 07:49:47;;;;;;;10.95;7.72;;;;;;;;;;5049237;28;20396;-79
2023/06/15 07:52:13;;;;;;;11.38;8.13;;;;;;;;;;5061019;28;20025;-78
2023/06/15 07:54:41;;;;;;;7.75;6.95;;;;;;;;;;5056555;28;20029;-78
2023/06/15 07:57:07;;;;;;;11.13;7.95;;;;;;;;;;5061867;28;20028;-79
2023/06/15 07:59:33;;;;;;;9.55;6.80;;;;;;;;;;5065462;28;20035;-79
2023/06/15 08:02:02;;;;;;;10.98;7.25;;;;;;;;;;5067555;28;20025;-78
2023/06/15 08:04:28;;;;;;;8.60;7.35;;;;;;;;;;5060860;28;20033;-78
2023/06/15 08:06:54;;;;;;;9.50;6.80;;;;;;;;;;5049192;28;20032;-79
2023/06/15 08:09:22;;;;;;;8.05;6.35;;;;;;;;;;5061244;28;20037;-82
2023/06/15 08:11:49;;;;;;;9.23;6.75;;;;;;;;;;5069872;28;20695;-80
2023/06/15 08:14:16;;;;;;;7.07;6.22;;;;;;;;;;5072309;28;20016;-82
2023/06/15 08:16:42;;;;;;;14.10;6.57;;;;;;;;;;5072187;28;20423;-79
2023/06/15 08:19:08;;;;;;;7.50;5.90;;;;;;;;;;5062223;28;20078;-80
2023/06/15 08:21:34;;;;;;;9.77;6.15;;;;;;;;;;5064397;28;20432;-77
2023/06/15 08:24:00;;;;;;;8.77;6.72;;;;;;;;;;5070743;28;20111;-84
2023/06/15 08:26:26;;;;;;;8.75;6.50;;;;;;;;;;5045623;28;20036;-78
2023/06/15 08:28:52;;;;;;;13.10;7.65;;;;;;;;;;5056293;28;20025;-78
2023/06/15 08:31:19;;;;;;;8.88;6.25;;;;;;;;;;5037808;28;20033;-78
2023/06/15 08:33:45;;;;;;;7.32;5.70;;;;;;;;;;5061370;28;20028;-78
2023/06/15 08:36:11;;;;;;;6.80;5.97;;;;;;;;;;5067402;28;20029;-79
2023/06/15 08:38:37;;;;;;;8.38;5.65;;;;;;;;;;5065718;28;20024;-77
2023/06/15 08:41:04;;;;;;;6.45;5.38;;;;;;;;;;5066130;28;20029;-78
2023/06/15 08:43:31;;;;;;;9.23;5.57;;;;;;;;;;5051781;28;20032;-79
2023/06/15 08:45:59;;;;;;;7.53;6.15;;;;;;;;;;5067575;28;20039;-77
2023/06/15 08:48:27;;;;;;;6.53;4.95;;;;;;;;;;5067840;28;20033;-79
2023/06/15 08:50:53;;;;;;;7.00;6.10;;;;;;;;;;5045749;28;20023;-78
2023/06/15 08:53:22;;;;;;;6.40;5.05;;;;;;;;;;5065625;28;20024;-78
2023/06/15 08:55:49;;;;;;;8.15;5.50;;;;;;;;;;5048304;28;20021;-78
2023/06/15 08:58:15;;;;;;;6.90;4.90;;;;;;;;;;5062865;28;20029;-80
2023/06/15 09:00:41;;;;;;;7.47;5.13;;;;;;;;;;5046066;28;20437;-79
2023/06/15 09:03:13;;;;;;;7.35;5.88;;;;;;;;;;5074552;28;20128;-77
2023/06/15 09:05:39;;;;;;;6.25;4.90;;;;;;;;;;5066291;28;20089;-79
2023/06/15 09:08:06;;;;;;;6.50;4.90;;;;;;;;;;5063822;28;20429;-78
2023/06/15 09:10:35;;;;;;;7.75;5.32;;;;;;;;;;5052894;28;20111;-78
2023/06/15 09:13:01;;;;;;;6.68;4.63;;;;;;;;;;5062952;28;20077;-79
2023/06/15 09:15:28;;;;;;;8.35;4.95;;;;;;;;;;5060774;28;20089;-80
2023/06/15 09:17:59;;;;;;;9.23;5.07;;;;;;;;;;5063809;28;20424;-79
2023/06/15 09:20:26;;;;;;;7.03;5.25;;;;;;;;;;5040105;28;20143;-79
2023/06/15 09:22:57;;;;;;;6.05;4.95;;;;;;;;;;5052079;28;20189;-79
2023/06/15 09:25:23;;;;;;;7.38;5.22;;;;;;;;;;5060861;28;20033;-83
2023/06/15 09:27:57;;;;;;;6.45;4.70;;;;;;;;;;5069672;28;20744;-80
2023/06/15 09:30:31;;;;;;;7.53;5.28;;;;;;;;;;5072855;28;20032;-79
2023/06/15 09:32:57;;;;;;;6.00;5.10;;;;;;;;;;5063056;28;20047;-79
2023/06/15 09:35:24;;;;;;;6.65;5.07;;;;;;;;;;5065017;28;20758;-79
2023/06/15 09:37:56;;;;;;;6.20;4.47;;;;;;;;;;5065563;28;20024;-79
2023/06/15 09:40:26;;;;;;;6.68;4.82;;;;;;;;;;5066375;28;20024;-80
2023/06/15 09:42:56;;;;;;;7.13;4.97;;;;;;;;;;5068794;28;20428;-79
2023/06/15 09:45:22;;;;;;;5.53;4.70;;;;;;;;;;5057727;28;20036;-80
2023/06/15 09:47:53;;;;;;;7.35;4.75;;;;;;;;;;5071192;28;20392;-79
2023/06/15 09:50:20;;;;;;;6.25;5.18;;;;;;;;;;5066939;28;20099;-79
2023/06/15 09:52:50;;;;;;;6.03;4.82;;;;;;;;;;5066574;28;20439;-80
2023/06/15 09:55:16;;;;;;;7.63;4.63;;;;;;;;;;5064843;28;20024;-80
2023/06/15 09:57:42;;;;;;;8.07;4.53;;;;;;;;;;5053516;28;20025;-80
2023/06/15 10:00:09;;;;;;;8.27;5.53;;;;;;;;;;5062260;28;20131;-80
2023/06/15 10:02:37;;;;;;;7.57;5.10;;;;;;;;;;5046814;28;20059;-79
2023/06/15 10:05:06;;;;;;;10.32;5.30;;;;;;;;;;5060140;28;20025;-85
2023/06/15 10:07:33;;;;;;;6.10;4.85;;;;;;;;;;5063368;28;20044;-80
2023/06/15 10:10:00;;;;;;;9.02;4.78;;;;;;;;;;5071288;28;20099;-81
2023/06/15 10:12:28;;;;;;;8.68;5.30;;;;;;;;;;5072556;28;22990;-81
2023/06/15 10:14:57;;;;;;;5.82;4.75;;;;;;;;;;5067785;28;20059;-81
2023/06/15 10:17:34;;;;;;;6.20;4.95;;;;;;;;;;5067475;28;20040;-80
2023/06/15 10:20:08;;;;;;;5.35;4.65;;;;;;;;;;5057666;28;20032;-78
2023/06/15 10:22:53;;;;;;;5.63;4.97;;;;;;;;;;5040804;28;20039;-79
2023/06/15 10:25:20;;;;;;;;;;;;;;;;;;5056537;28;20458;-79
2023/06/15 10:27:47;;;;;;;7.82;5.13;;;;;;;;;;5045156;28;19930;-79
2023/06/15 10:30:21;;;;;;;5.78;4.80;;;;;;;;;;5062821;28;20044;-79
2023/06/15 10:32:55;;;;;;;7.30;4.93;;;;;;;;;;5064966;28;20053;-79
2023/06/15 10:35:22;;;;;;;6.63;4.78;;;;;;;;;;5063234;28;20794;-79
2023/06/15 10:38:04;;;;;;;6.63;4.78;;;;;;;;;;5066458;28;20063;-79
2023/06/15 10:40:33;;;;;;;6.55;4.90;;;;;;;;;;5052148;28;20059;-79
2023/06/15 10:43:02;;;;;;;5.90;4.78;;;;;;;;;;5059564;28;20028;-79
2023/06/15 10:45:29;;;;;;;6.55;5.40;;;;;;;;;;5060793;28;20035;-79
2023/06/15 10:47:58;;;;;;;7.72;5.82;;;;;;;;;;5051395;28;20024;-79
2023/06/15 10:50:25;;;;;;;12.13;5.38;;;;;;;;;;5045147;28;20036;-79
2023/06/15 10:52:51;;;;;;;6.35;5.07;;;;;;;;;;5064538;28;20056;-79
2023/06/15 10:55:22;;;;;;;6.93;5.18;;;;;;;;;;5049059;28;20047;-79
2023/06/15 10:57:48;;;;;;;7.90;5.70;;;;;;;;;;5059071;28;20036;-79
2023/06/15 11:00:24;;;;;;;7.00;5.07;;;;;;;;;;5056635;28;20020;-78
2023/06/15 11:02:58;;;;;;;6.05;4.95;;;;;;;;;;5068547;28;20029;-79
2023/06/15 11:05:41;;;;;;;9.10;5.57;;;;;;;;;;5064374;28;20485;-78
2023/06/15 11:08:17;;;;;;;5.88;4.95;;;;;;;;;;5065394;28;20492;-79
2023/06/15 11:10:43;;;;;;;5.35;4.82;;;;;;;;;;5070723;28;20066;-79
2023/06/15 11:13:10;;;;;;;7.88;4.90;;;;;;;;;;5064847;28;20040;-80
2023/06/15 11:15:36;;;;;;;7.90;5.18;;;;;;;;;;5063245;28;20024;-80
2023/06/15 11:18:11;;;;;;;6.28;5.10;;;;;;;;;;5071771;28;20116;-79
2023/06/15 11:20:56;;;;;;;8.45;5.78;;;;;;;;;;5061900;28;20044;-80
2023/06/15 11:23:24;;;;;;;5.68;5.00;;;;;;;;;;5067854;28;20384;-80
2023/06/15 11:25:51;;;;;;;7.45;5.45;;;;;;;;;;5066864;28;20032;-80
2023/06/15 11:28:30;;;;;;;6.28;5.22;;;;;;;;;;5069990;28;20031;-80
2023/06/15 11:30:58;;;;;;;10.05;5.50;;;;;;;;;;5063481;28;20020;-79
2023/06/15 11:33:27;;;;;;;6.20;5.22;;;;;;;;;;5049328;28;20045;-80
2023/06/15 11:35:54;;;;;;;10.45;5.43;;;;;;;;;;5071299;28;20020;-81
2023/06/15 11:38:27;;;;;;;9.10;5.90;;;;;;;;;;5069628;28;20530;-81
2023/06/15 11:41:03;;;;;;;7.65;5.68;;;;;;;;;;5049554;28;20459;-80
2023/06/15 11:43:48;;;;;;;10.85;5.93;;;;;;;;;;5064018;28;20082;-80
2023/06/15 11:46:16;;;;;;;6.78;5.60;;;;;;;;;;5047280;28;20081;-80
2023/06/15 11:48:43;;;;;;;7.80;4.95;;;;;;;;;;5066667;28;20043;-82
2023/06/15 11:51:09;;;;;;;6.25;5.57;;;;;;;;;;5069645;28;20031;-81
2023/06/15 11:53:37;;;;;;;6.38;5.68;;;;;;;;;;5063247;28;20036;-79
2023/06/15 11:56:03;;;;;;;6.13;5.53;;;;;;;;;;5075840;28;20021;-80
2023/06/15 11:58:29;;;;;;;9.30;5.63;;;;;;;;;;5065265;28;20032;-80
2023/06/15 12:00:55;;;;;;;7.18;5.30;;;;;;;;;;5065722;28;20025;-80
2023/06/15 12:03:21;;;;;;;8.68;6.10;;;;;;;;;;5064958;28;20044;-80
2023/06/15 12:05:55;;;;;;;8.65;5.70;;;;;;;;;;5066671;28;20134;-81
2023/06/15 12:08:22;;;;;;;9.65;5.82;;;;;;;;;;5068987;28;21240;-80
2023/06/15 12:10:48;;;;;;;8.07;5.30;;;;;;;;;;5052041;28;20044;-84
2023/06/15 12:13:15;;;;;;;8.50;6.07;;;;;;;;;;5066906;28;20017;-79
2023/06/15 12:15:46;;;;;;;8.27;5.68;;;;;;;;;;5065106;28;20024;-78
2023/06/15 12:18:12;;;;;;;8.18;5.20;;;;;;;;;;5063411;28;20561;-77
2023/06/15 12:20:39;;;;;;;13.57;6.10;;;;;;;;;;5064867;28;20025;-78
2023/06/15 12:23:05;;;;;;;8.82;5.70;;;;;;;;;;5070884;28;20038;-80
2023/06/15 12:25:47;;;;;;;7.45;5.32;;;;;;;;;;5066620;28;20032;-79
2023/06/15 12:28:18;;;;;;;7.32;5.70;;;;;;;;;;5068517;28;20426;-79
2023/06/15 12:30:47;;;;;;;8.75;5.43;;;;;;;;;;5066365;28;20016;-78
2023/06/15 12:33:30;;;;;;;6.38;5.10;;;;;;;;;;5062077;28;20044;-77
2023/06/15 12:35:56;;;;;;;6.70;5.00;;;;;;;;;;5064912;28;20035;-79
2023/06/15 12:38:24;;;;;;;8.73;5.57;;;;;;;;;;5063450;28;20040;-79
2023/06/15 12:40:52;;;;;;;13.15;5.30;;;;;;;;;;5050866;28;20432;-79
2023/06/15 12:43:18;;;;;;;8.70;5.38;;;;;;;;;;5068803;28;20031;-79
2023/06/15 12:45:45;;;;;;;11.65;6.13;;;;;;;;;;5065550;28;20028;-79
2023/06/15 12:48:11;;;;;;;8.48;4.32;;;;;;;;;;5074485;28;20037;-80
2023/06/15 12:50:37;;;;;;;8.85;4.68;;;;;;;;;;5049637;28;20120;-79
2023/06/15 12:53:03;;;;;;;11.05;4.93;;;;;;;;;;5065331;28;20021;-80
2023/06/15 12:55:30;;;;;;;9.80;4.40;;;;;;;;;;5061355;28;20036;-81
2023/06/15 12:57:56;;;;;;;8.10;4.75;;;;;;;;;;5064048;28;20495;-80
2023/06/15 13:00:26;;;;;;;7.30;5.18;;;;;;;;;;5067809;28;20039;-81
2023/06/15 13:02:53;;;;;;;7.53;4.93;;;;;;;;;;5071267;28;20035;-81
2023/06/15 13:05:20;;;;;;;8.13;4.60;;;;;;;;;;5062853;28;20025;-80
2023/06/15 13:07:46;;;;;;;6.72;4.53;;;;;;;;;;5050348;28;20032;-80
2023/06/15 13:10:13;;;;;;;6.40;5.10;;;;;;;;;;5066569;28;20020;-80
2023/06/15 13:12:39;;;;;;;9.32;5.00;;;;;;;;;;5072322;28;20032;-80
2023/06/15 13:15:06;;;;;;;9.13;5.13;;;;;;;;;;5039584;28;20036;-80
2023/06/15 13:17:37;;;;;;;6.22;4.72;;;;;;;;;;5053127;28;20606;-80
2023/06/15 13:20:07;;;;;;;10.55;4.97;;;;;;;;;;5065324;28;20500;-80
2023/06/15 13:22:35;;;;;;;7.03;4.43;;;;;;;;;;5049772;28;20039;-80
2023/06/15 13:25:03;;;;;;;5.82;4.90;;;;;;;;;;5070154;28;20027;-80
2023/06/15 13:27:31;;;;;;;8.25;4.88;;;;;;;;;;5066001;28;20052;-80
2023/06/15 13:29:57;;;;;;;6.70;5.07;;;;;;;;;;5067506;28;20024;-80
2023/06/15 13:32:24;;;;;;;7.15;5.07;;;;;;;;;;5067575;28;20055;-81
2023/06/15 13:34:50;;;;;;;7.53;5.32;;;;;;;;;;5063221;28;20087;-81
2023/06/15 13:37:17;;;;;;;5.03;4.53;;;;;;;;;;5060999;28;20038;-81
2023/06/15 13:39:43;;;;;;;6.03;4.40;;;;;;;;;;5045968;28;20078;-81
2023/06/15 13:42:11;;;;;;;6.53;4.45;;;;;;;;;;5060653;28;20062;-81
2023/06/15 13:44:38;;;;;;;10.55;5.07;;;;;;;;;;5052459;28;20036;-79
2023/06/15 13:47:04;;;;;;;5.80;4.50;;;;;;;;;;5064156;28;20032;-80
2023/06/15 13:49:31;;;;;;;7.18;4.32;;;;;;;;;;5063307;28;20042;-80
2023/06/15 13:51:59;;;;;;;8.77;4.50;;;;;;;;;;5060299;28;20024;-80
2023/06/15 13:54:25;;;;;;;5.28;4.78;;;;;;;;;;5054991;28;20579;-80
2023/06/15 13:56:52;;;;;;;7.07;5.13;;;;;;;;;;5040223;28;20587;-80
2023/06/15 13:59:19;;;;;;;10.85;5.25;;;;;;;;;;5067965;28;20020;-80
2023/06/15 14:01:45;;;;;;;5.68;5.00;;;;;;;;;;5065161;28;20063;-80
2023/06/15 14:04:11;;;;;;;9.18;4.97;;;;;;;;;;5065622;28;20069;-80
2023/06/15 14:06:37;;;;;;;5.45;4.95;;;;;;;;;;5066687;28;20457;-80
2023/06/15 14:09:04;;;;;;;6.28;4.78;;;;;;;;;;5063620;28;20051;-80
2023/06/15 14:11:30;;;;;;;6.50;4.85;;;;;;;;;;5060040;28;20029;-80
2023/06/15 14:13:58;;;;;;;6.68;4.80;;;;;;;;;;5065870;28;20020;-80
2023/06/15 14:16:24;;;;;;;6.72;5.10;;;;;;;;;;5066005;28;21755;-80
2023/06/15 14:18:50;;;;;;;5.93;4.90;;;;;;;;;;5062947;28;20029;-80
2023/06/15 14:21:17;;;;;;;6.20;4.32;;;;;;;;;;5053674;28;20033;-80
2023/06/15 14:23:43;;;;;;;6.15;4.65;;;;;;;;;;5062486;28;20027;-80
2023/06/15 14:26:09;;;;;;;5.82;4.88;;;;;;;;;;5067867;28;20049;-80
2023/06/15 14:28:35;;;;;;;8.43;4.88;;;;;;;;;;5064888;28;20078;-81
2023/06/15 14:31:02;;;;;;;6.40;4.68;;;;;;;;;;5051610;28;20477;-78
2023/06/15 14:33:28;;;;;;;6.43;5.00;;;;;;;;;;5061402;28;20115;-81
2023/06/15 14:35:55;;;;;;;5.00;4.05;;;;;;;;;;5064110;28;20385;-80
2023/06/15 14:38:21;;;;;;;5.57;4.43;;;;;;;;;;5066722;28;20025;-80
2023/06/15 14:40:52;;;;;;;5.25;4.72;;;;;;;;;;5042212;28;20508;-80